Time;durP1;ratioP1;P1;durP2;ratioP2;P2;SDS_P1;SDS_P2;PMS_P1;PMS_P2;Temp;Humidity;BMP_temperature;BMP_pressure;BME280_temperature;BME280_humidity;BME280_pressure;Samples;Min_cycle;Max_cycle;Signal;HPM_P1;HPM_P2
2022/05/04 00:00:39;;;;;;;6.50;4.70;;;13.50;94.50;;;;;;7376051;19;20418;-40
2022/05/04 00:03:09;;;;;;;7.50;5.57;;;13.30;94.70;;;;;;7373061;19;20768;-40
2022/05/04 00:05:40;;;;;;;7.23;5.90;;;13.30;95.10;;;;;;7375673;19;20916;-40
2022/05/04 00:08:15;;;;;;;5.80;5.30;;;13.50;94.60;;;;;;7372608;19;20380;-40
2022/05/04 00:10:46;;;;;;;6.77;6.13;;;13.70;94.00;;;;;;7376508;19;20407;-40
2022/05/04 00:13:20;;;;;;;7.33;5.67;;;13.80;93.50;;;;;;7378168;19;20923;-41
2022/05/04 00:15:55;;;;;;;8.03;5.20;;;13.90;93.20;;;;;;7371992;19;20403;-40
2022/05/04 00:18:24;;;;;;;8.00;6.00;;;14.00;93.20;;;;;;7372932;19;20928;-40
2022/05/04 00:20:54;;;;;;;8.60;5.67;;;13.90;93.30;;;;;;7369665;19;20372;-40
2022/05/04 00:23:27;;;;;;;7.13;5.90;;;13.90;93.10;;;;;;7374099;19;20491;-41
2022/05/04 00:25:56;;;;;;;8.03;6.73;;;13.80;93.40;;;;;;7380820;19;20383;-40
2022/05/04 00:28:28;;;;;;;10.33;5.90;;;13.60;93.70;;;;;;7382117;19;20953;-40
2022/05/04 00:31:00;;;;;;;6.27;5.60;;;13.40;94.20;;;;;;7375805;19;20456;-48
2022/05/04 00:33:29;;;;;;;6.70;6.10;;;13.30;94.60;;;;;;7380113;19;20364;-48
2022/05/04 00:35:59;;;;;;;7.50;6.23;;;13.10;95.10;;;;;;7383661;19;20368;-48
2022/05/04 00:38:31;;;;;;;6.60;5.90;;;13.20;95.10;;;;;;7384605;19;20775;-48
2022/05/04 00:41:06;;;;;;;6.10;5.53;;;13.50;94.50;;;;;;7384392;19;20901;-48
2022/05/04 00:43:35;;;;;;;7.43;6.60;;;13.60;94.00;;;;;;7381469;19;20911;-49
2022/05/04 00:46:05;;;;;;;7.27;6.17;;;13.60;93.90;;;;;;7382211;19;20753;-49
2022/05/04 00:48:34;;;;;;;7.23;6.57;;;13.60;93.70;;;;;;7384017;19;20420;-48
2022/05/04 00:51:09;;;;;;;8.33;5.90;;;13.70;93.80;;;;;;7381471;19;20382;-50
2022/05/04 00:53:45;;;;;;;7.60;6.80;;;13.70;93.40;;;;;;7383974;19;20400;-49
2022/05/04 00:56:15;;;;;;;7.93;6.00;;;13.80;93.70;;;;;;7383804;19;20403;-48
2022/05/04 00:58:56;;;;;;;9.43;5.73;;;13.80;93.70;;;;;;7383637;19;20881;-48
2022/05/04 01:01:27;;;;;;;8.57;7.03;;;13.70;93.60;;;;;;7383832;19;20914;-40
2022/05/04 01:03:56;;;;;;;11.60;6.50;;;13.70;93.70;;;;;;7384702;19;20383;-40
2022/05/04 01:06:26;;;;;;;11.40;7.20;;;13.70;93.80;;;;;;7380289;19;21165;-40
2022/05/04 01:09:00;;;;;;;9.30;7.10;;;13.30;94.50;;;;;;7382208;19;20959;-40
2022/05/04 01:11:30;;;;;;;15.90;7.33;;;13.10;95.60;;;;;;7379139;19;20383;-41
2022/05/04 01:14:04;;;;;;;7.60;6.77;;;13.10;95.60;;;;;;7381093;19;21029;-40
2022/05/04 01:16:34;;;;;;;7.80;7.00;;;13.00;95.80;;;;;;7382176;19;20375;-40
2022/05/04 01:19:04;;;;;;;8.40;7.30;;;13.10;95.80;;;;;;7378237;19;20416;-40
2022/05/04 01:21:34;;;;;;;8.03;6.77;;;13.10;95.50;;;;;;7379291;19;20815;-40
2022/05/04 01:24:07;;;;;;;9.07;6.80;;;13.20;95.50;;;;;;7381359;19;20483;-40
2022/05/04 01:26:36;;;;;;;8.57;6.40;;;13.30;95.30;;;;;;7379658;19;20435;-40
2022/05/04 01:29:09;;;;;;;8.23;6.67;;;13.30;95.10;;;;;;7380931;19;20409;-40
2022/05/04 01:31:41;;;;;;;7.60;6.50;;;13.50;94.70;;;;;;7383056;19;20379;-48
2022/05/04 01:34:11;;;;;;;7.67;6.87;;;13.60;94.50;;;;;;7384217;19;20453;-48
2022/05/04 01:36:43;;;;;;;8.23;6.63;;;13.70;94.00;;;;;;7383477;19;20423;-48
2022/05/04 01:39:21;;;;;;;8.17;6.40;;;13.80;93.80;;;;;;7382941;19;20384;-48
2022/05/04 01:44:32;;;;;;;9.27;6.30;;;13.80;93.50;;;;;;7382177;19;20476;-48
2022/05/04 01:47:05;;;;;;;7.97;6.30;;;13.90;93.20;;;;;;7382445;19;20543;-48
2022/05/04 01:49:34;;;;;;;7.10;6.23;;;13.90;93.10;;;;;;7383483;19;20790;-50
2022/05/04 01:52:04;;;;;;;10.40;8.20;;;13.90;93.00;;;;;;7383693;19;20410;-50
2022/05/04 01:54:39;;;;;;;9.70;6.80;;;13.90;93.20;;;;;;7381948;19;20982;-48
2022/05/04 01:57:09;;;;;;;9.43;6.93;;;13.70;93.60;;;;;;7382099;19;20771;-48
2022/05/04 01:59:43;;;;;;;9.33;7.23;;;13.50;94.10;;;;;;7380306;19;20465;-48
2022/05/04 02:02:14;;;;;;;8.87;6.33;;;13.30;94.90;;;;;;7380474;19;20422;-48
2022/05/04 02:04:44;;;;;;;8.30;7.03;;;13.10;95.50;;;;;;7381699;19;20839;-48
2022/05/04 02:07:13;;;;;;;7.47;6.53;;;13.10;96.00;;;;;;7382326;19;20414;-48
2022/05/04 02:09:49;;;;;;;10.00;8.23;;;13.20;95.60;;;;;;7380025;19;20380;-48
2022/05/04 02:12:20;;;;;;;8.10;6.73;;;13.30;95.60;;;;;;7380313;19;20427;-48
2022/05/04 02:14:53;;;;;;;6.70;6.10;;;13.30;95.50;;;;;;7380744;19;20383;-48
2022/05/04 02:17:22;;;;;;;8.43;7.47;;;13.40;95.60;;;;;;7377947;19;20399;-48
2022/05/04 02:19:52;;;;;;;11.63;7.10;;;13.60;95.30;;;;;;7376584;19;20441;-48
2022/05/04 02:22:21;;;;;;;7.63;6.90;;;13.40;95.30;;;;;;7379192;19;20746;-48
2022/05/04 02:24:53;;;;;;;9.30;7.10;;;13.40;95.10;;;;;;7378938;19;20429;-48
2022/05/04 02:27:23;;;;;;;11.67;6.87;;;13.30;95.20;;;;;;7379731;19;20930;-49
2022/05/04 02:29:52;;;;;;;8.30;7.50;;;13.20;95.50;;;;;;7380090;19;20450;-48
2022/05/04 02:32:25;;;;;;;7.03;6.33;;;13.20;95.90;;;;;;7380169;19;20837;-48
2022/05/04 02:40:25;;;;;;;7.60;6.80;;;13.50;95.30;;;;;;7378823;19;20394;-48
2022/05/04 02:42:57;;;;;;;7.43;6.73;;;13.50;94.90;;;;;;7379024;19;20773;-48
2022/05/04 02:45:29;;;;;;;7.50;6.80;;;13.50;95.20;;;;;;7377455;19;20378;-49
2022/05/04 02:48:01;;;;;;;8.10;6.43;;;13.60;94.80;;;;;;7380072;19;20416;-48
2022/05/04 02:50:30;;;;;;;6.80;5.97;;;13.70;94.60;;;;;;7380979;19;20403;-48
2022/05/04 02:53:00;;;;;;;7.20;6.50;;;13.70;94.30;;;;;;7380046;19;21016;-49
2022/05/04 02:55:32;;;;;;;7.10;6.23;;;13.80;94.30;;;;;;7378591;19;20380;-48
2022/05/04 02:58:01;;;;;;;6.60;6.00;;;13.80;94.20;;;;;;7379468;19;20414;-48
2022/05/04 03:00:33;;;;;;;7.63;6.70;;;13.80;94.20;;;;;;7376765;19;21001;-48
2022/05/04 03:03:00;;;;;;;7.63;6.93;;;13.80;94.10;;;;;;7378289;19;20473;-48
2022/05/04 03:05:34;;;;;;;8.80;6.97;;;13.80;94.30;;;;;;7378109;19;20424;-48
2022/05/04 03:08:04;;;;;;;7.37;6.67;;;13.70;94.60;;;;;;7373517;19;20439;-48
2022/05/04 03:13:22;;;;;;;7.70;7.00;;;13.70;94.40;;;;;;7379316;19;20905;-48
2022/05/04 03:15:52;;;;;;;10.20;7.13;;;13.50;95.00;;;;;;7376630;19;20432;-48
2022/05/04 03:18:24;;;;;;;7.87;7.07;;;13.40;95.60;;;;;;7375869;19;20508;-48
2022/05/04 03:20:55;;;;;;;8.13;6.67;;;13.50;95.70;;;;;;7379484;19;20427;-48
2022/05/04 03:23:25;;;;;;;9.03;7.37;;;13.70;95.20;;;;;;7375219;19;20441;-49
2022/05/04 03:25:57;;;;;;;10.00;7.67;;;13.80;94.80;;;;;;7375382;19;20364;-48
2022/05/04 03:28:28;;;;;;;8.40;6.60;;;13.70;94.60;;;;;;7372349;19;20979;-48
2022/05/04 03:30:59;;;;;;;9.40;8.00;;;13.80;94.70;;;;;;7375290;19;20401;-48
2022/05/04 03:33:31;;;;;;;7.83;6.80;;;13.90;94.30;;;;;;7372937;19;20372;-48
2022/05/04 03:36:00;;;;;;;6.80;6.10;;;13.90;93.70;;;;;;7379406;19;20412;-48
2022/05/04 03:38:30;;;;;;;7.27;6.67;;;14.00;93.30;;;;;;7377890;19;20360;-48
2022/05/04 03:41:05;;;;;;;7.30;6.50;;;14.10;93.10;;;;;;7375344;19;20411;-48
2022/05/04 03:43:35;;;;;;;7.80;7.00;;;14.10;92.90;;;;;;7367084;19;21065;-48
2022/05/04 03:46:17;;;;;;;7.20;6.50;;;14.10;92.80;;;;;;7375721;19;20460;-49
2022/05/04 03:48:54;;;;;;;9.77;7.00;;;14.00;93.70;;;;;;7378840;19;20376;-50
2022/05/04 03:51:24;;;;;;;8.20;7.17;;;14.00;94.20;;;;;;7376220;19;20388;-49
2022/05/04 03:53:56;;;;;;;9.43;8.17;;;13.90;94.50;;;;;;7376712;19;20457;-49
2022/05/04 03:56:30;;;;;;;8.03;7.10;;;13.90;94.70;;;;;;7377945;19;20380;-49
2022/05/04 03:58:59;;;;;;;7.57;6.87;;;13.90;94.70;;;;;;7373352;19;20372;-49
2022/05/04 04:01:29;;;;;;;8.03;7.23;;;13.90;94.60;;;;;;7377904;19;20971;-50
2022/05/04 04:03:58;;;;;;;7.63;6.80;;;13.80;95.00;;;;;;7370778;19;20388;-49
2022/05/04 04:06:28;;;;;;;7.40;6.60;;;13.80;95.10;;;;;;7376105;19;20434;-49
2022/05/04 04:08:58;;;;;;;7.83;6.93;;;13.80;95.10;;;;;;7371174;19;20392;-49
2022/05/04 04:11:32;;;;;;;7.87;7.07;;;13.70;95.20;;;;;;7369972;19;20376;-49
2022/05/04 04:14:02;;;;;;;7.10;6.40;;;13.70;95.30;;;;;;7375473;19;20505;-49
2022/05/04 04:16:32;;;;;;;7.60;6.77;;;13.70;95.30;;;;;;7377268;19;20734;-48
2022/05/04 04:19:02;;;;;;;8.20;7.00;;;13.90;94.70;;;;;;7374410;19;20527;-49
2022/05/04 04:24:15;;;;;;;7.63;6.77;;;14.00;94.70;;;;;;7374384;19;20973;-50
2022/05/04 04:26:50;;;;;;;6.60;6.00;;;13.90;95.20;;;;;;7374303;19;20412;-48
2022/05/04 04:29:19;;;;;;;11.47;7.53;;;14.00;95.20;;;;;;7378139;19;20380;-48
2022/05/04 04:31:49;;;;;;;7.20;6.50;;;14.00;95.10;;;;;;7374210;19;20503;-49
2022/05/04 04:34:18;;;;;;;8.93;7.53;;;14.00;95.30;;;;;;7371592;19;20900;-50
2022/05/04 04:36:48;;;;;;;10.30;7.00;;;13.90;95.50;;;;;;7375905;19;20761;-50
2022/05/04 04:39:20;;;;;;;8.70;7.07;;;14.00;95.60;;;;;;7377266;19;20770;-49
2022/05/04 04:41:52;;;;;;;7.87;7.10;;;14.00;95.40;;;;;;7375279;19;21009;-47
2022/05/04 04:44:22;;;;;;;9.47;8.00;;;14.00;95.90;;;;;;7374150;19;20794;-48
2022/05/04 04:46:54;;;;;;;8.53;7.20;;;14.00;95.60;;;;;;7368585;19;20384;-48
2022/05/04 04:49:25;;;;;;;9.27;7.80;;;14.10;95.20;;;;;;7376301;19;20448;-49
2022/05/04 04:51:54;;;;;;;10.37;8.10;;;14.10;95.10;;;;;;7374331;19;20945;-48
2022/05/04 04:54:24;;;;;;;8.93;8.03;;;14.00;95.20;;;;;;7373715;19;20407;-49
2022/05/04 04:56:56;;;;;;;9.63;7.67;;;14.10;95.30;;;;;;7374683;19;20380;-50
2022/05/04 04:59:25;;;;;;;7.97;7.20;;;14.20;94.70;;;;;;7376676;19;20392;-49
2022/05/04 05:01:57;;;;;;;8.40;7.10;;;14.20;95.20;;;;;;7376767;19;20379;-49
2022/05/04 05:04:26;;;;;;;8.30;7.43;;;14.30;95.40;;;;;;7373877;19;20392;-49
2022/05/04 05:06:56;;;;;;;9.80;8.10;;;14.40;95.20;;;;;;7375628;19;20409;-48
2022/05/04 05:09:28;;;;;;;10.07;8.30;;;14.50;95.00;;;;;;7381251;19;20736;-49
2022/05/04 05:12:00;;;;;;;8.10;7.30;;;14.30;94.90;;;;;;7378747;19;20763;-49
2022/05/04 05:17:15;;;;;;;9.10;8.07;;;14.40;95.60;;;;;;7380742;19;20382;-50
2022/05/04 05:19:45;;;;;;;12.10;7.70;;;14.30;95.40;;;;;;7378117;19;20944;-50
2022/05/04 05:22:16;;;;;;;8.10;7.30;;;14.40;96.10;;;;;;7380984;19;20406;-51
2022/05/04 05:24:48;;;;;;;10.17;8.30;;;14.40;95.90;;;;;;7380998;19;20917;-50
2022/05/04 05:27:23;;;;;;;9.47;8.40;;;14.50;95.90;;;;;;7381656;19;20364;-49
2022/05/04 05:30:01;;;;;;;10.90;8.33;;;14.40;95.00;;;;;;7380352;19;20893;-49
2022/05/04 05:32:30;;;;;;;13.10;9.50;;;14.50;95.00;;;;;;7376949;19;20718;-49
2022/05/04 05:35:02;;;;;;;16.70;8.20;;;14.70;94.90;;;;;;7383257;19;20722;-49
2022/05/04 05:37:32;;;;;;;11.03;8.27;;;14.80;94.80;;;;;;7379412;19;20411;-50
2022/05/04 05:40:08;;;;;;;9.37;8.43;;;14.90;94.60;;;;;;7380538;19;20460;-49
2022/05/04 05:42:40;;;;;;;9.27;7.90;;;15.00;93.80;;;;;;7381475;19;20396;-49
2022/05/04 05:45:11;;;;;;;9.30;8.10;;;15.10;92.90;;;;;;7378196;19;20420;-49
2022/05/04 05:47:42;;;;;;;9.20;7.57;;;15.10;92.10;;;;;;7380996;19;20399;-49
2022/05/04 05:50:14;;;;;;;8.27;7.40;;;15.10;93.30;;;;;;7381541;19;20905;-49
2022/05/04 05:52:46;;;;;;;7.80;7.00;;;15.10;93.50;;;;;;7380300;19;20380;-49
2022/05/04 05:55:20;;;;;;;7.00;6.30;;;15.10;91.00;;;;;;7379081;19;21048;-49
2022/05/04 05:57:55;;;;;;;7.50;6.80;;;15.20;90.50;;;;;;7380834;19;20380;-49
2022/05/04 06:00:27;;;;;;;9.87;6.43;;;15.30;90.90;;;;;;7381639;19;20381;-49
2022/05/04 06:02:57;;;;;;;8.10;7.20;;;15.30;91.00;;;;;;7377620;19;20924;-49
2022/05/04 06:05:29;;;;;;;8.50;6.80;;;15.40;91.00;;;;;;7383551;19;20921;-50
2022/05/04 06:08:00;;;;;;;9.10;6.80;;;15.60;90.60;;;;;;7377421;19;20391;-49
2022/05/04 06:10:32;;;;;;;7.30;6.50;;;15.70;90.10;;;;;;7381268;19;20395;-49
2022/05/04 06:13:05;;;;;;;8.33;6.90;;;15.70;90.50;;;;;;7377187;19;20395;-49
2022/05/04 06:15:34;;;;;;;7.30;6.37;;;15.70;89.40;;;;;;7382785;19;20376;-49
2022/05/04 06:18:09;;;;;;;8.40;7.50;;;15.70;88.40;;;;;;7380199;19;20447;-49
2022/05/04 06:20:39;;;;;;;8.20;7.40;;;15.70;88.20;;;;;;7377708;19;20372;-50
2022/05/04 06:23:11;;;;;;;10.50;7.80;;;15.70;88.70;;;;;;7375640;19;20407;-49
2022/05/04 06:25:41;;;;;;;7.47;6.43;;;15.70;89.40;;;;;;7381023;19;20874;-49
2022/05/04 06:28:17;;;;;;;7.57;6.37;;;15.60;88.30;;;;;;7378692;19;20912;-49
2022/05/04 06:36:13;;;;;;;7.60;6.27;;;15.70;88.30;;;;;;7378694;19;20783;-41
2022/05/04 06:38:45;;;;;;;8.07;6.87;;;15.80;88.90;;;;;;7380790;19;20988;-41
2022/05/04 06:41:14;;;;;;;9.43;7.03;;;15.90;88.90;;;;;;7380094;19;20910;-41
2022/05/04 06:43:47;;;;;;;9.97;6.73;;;16.10;88.40;;;;;;7377790;19;20384;-41
2022/05/04 06:46:16;;;;;;;7.97;7.17;;;16.20;88.00;;;;;;7381097;19;20933;-41
2022/05/04 06:48:46;;;;;;;8.33;7.33;;;16.30;86.60;;;;;;7376999;19;20368;-41
2022/05/04 06:51:15;;;;;;;8.20;7.40;;;16.30;86.00;;;;;;7377890;19;20476;-39
2022/05/04 06:53:45;;;;;;;8.03;7.10;;;16.40;85.80;;;;;;7380994;19;20906;-39
2022/05/04 06:56:14;;;;;;;8.63;6.90;;;16.50;85.30;;;;;;7378329;19;20444;-39
2022/05/04 06:58:47;;;;;;;6.50;5.90;;;16.60;84.50;;;;;;7377483;19;20384;-41
2022/05/04 07:01:19;;;;;;;7.43;6.70;;;16.60;83.40;;;;;;7375290;19;20372;-48
2022/05/04 07:03:51;;;;;;;7.53;6.73;;;16.70;83.20;;;;;;7377938;19;20407;-47
2022/05/04 07:06:23;;;;;;;7.60;6.80;;;16.70;83.50;;;;;;7378112;19;20408;-49
2022/05/04 07:08:53;;;;;;;10.17;6.87;;;16.80;83.60;;;;;;7372669;19;20391;-47
2022/05/04 07:11:25;;;;;;;8.13;5.70;;;16.90;83.50;;;;;;7376091;19;20382;-48
2022/05/04 07:13:57;;;;;;;6.83;6.00;;;16.80;84.00;;;;;;7375146;19;20381;-48
2022/05/04 07:16:27;;;;;;;7.90;6.30;;;16.80;82.80;;;;;;7377235;19;20374;-48
2022/05/04 07:18:59;;;;;;;6.47;5.77;;;16.90;82.70;;;;;;7376746;19;20434;-48
2022/05/04 07:21:28;;;;;;;7.73;5.60;;;16.80;80.30;;;;;;7378426;19;20524;-48
2022/05/04 07:24:00;;;;;;;7.87;5.57;;;16.80;80.00;;;;;;7370252;19;20447;-47
2022/05/04 07:26:33;;;;;;;5.80;5.30;;;16.90;79.30;;;;;;7376179;19;20719;-47
2022/05/04 07:29:05;;;;;;;8.13;5.53;;;16.90;78.50;;;;;;7373313;19;20380;-49
2022/05/04 07:31:35;;;;;;;8.17;5.90;;;16.90;77.90;;;;;;7378184;19;20371;-40
2022/05/04 07:34:07;;;;;;;12.30;6.20;;;16.90;78.30;;;;;;7375676;19;20894;-40
2022/05/04 07:36:37;;;;;;;6.60;5.20;;;17.00;77.50;;;;;;7379512;19;20383;-40
2022/05/04 07:42:21;;;;;;;8.10;5.43;;;17.00;77.40;;;;;;7376598;19;21275;-40
2022/05/04 07:44:43;;;;;;;11.90;6.83;;;17.30;77.50;;;;;;7373197;19;20384;-40
2022/05/04 07:47:13;;;;;;;8.33;6.73;;;17.40;77.10;;;;;;7375223;19;20958;-40
2022/05/04 07:49:43;;;;;;;6.33;5.20;;;17.40;77.10;;;;;;7378605;19;20383;-40
2022/05/04 07:52:12;;;;;;;7.03;5.80;;;17.50;76.90;;;;;;7375438;19;20421;-40
2022/05/04 07:54:44;;;;;;;7.23;5.07;;;17.40;76.20;;;;;;7374823;19;20372;-40
2022/05/04 07:57:16;;;;;;;7.43;5.80;;;17.60;75.80;;;;;;7377130;19;20509;-41
2022/05/04 08:04:16;;;;;;;8.10;6.30;;;17.60;75.90;;;;;;7376136;19;20384;-48
2022/05/04 08:05:21;;;;;;;7.23;5.63;;;17.80;74.10;;;;;;7376550;19;20389;-48
2022/05/04 08:07:51;;;;;;;6.63;5.30;;;17.90;74.00;;;;;;7376976;19;20384;-48
2022/05/04 08:10:24;;;;;;;6.53;5.90;;;17.90;73.30;;;;;;7375825;19;20468;-48
2022/05/04 08:12:53;;;;;;;6.80;5.37;;;17.80;73.50;;;;;;7377252;19;20776;-48
2022/05/04 08:15:26;;;;;;;5.60;5.00;;;17.80;73.30;;;;;;7373456;19;20376;-48
2022/05/04 08:17:58;;;;;;;6.40;5.57;;;17.60;73.80;;;;;;7376712;19;20422;-48
2022/05/04 08:20:31;;;;;;;8.27;6.30;;;17.50;75.20;;;;;;7370978;19;20467;-48
2022/05/04 08:23:03;;;;;;;7.07;5.03;;;17.40;75.80;;;;;;7374501;19;20395;-49
2022/05/04 08:25:37;;;;;;;8.17;4.70;;;17.20;75.50;;;;;;7371093;19;20856;-48
2022/05/04 08:28:12;;;;;;;5.53;5.00;;;17.20;76.40;;;;;;7377293;19;20375;-48
2022/05/04 08:30:46;;;;;;;6.20;5.63;;;17.20;76.10;;;;;;7373436;19;20395;-47
2022/05/04 08:33:21;;;;;;;5.30;4.50;;;17.10;76.20;;;;;;7377747;19;20745;-48
2022/05/04 08:35:52;;;;;;;5.03;4.60;;;17.00;76.10;;;;;;7376245;19;20368;-48
2022/05/04 08:38:27;;;;;;;6.70;4.30;;;17.00;75.90;;;;;;7375664;19;20770;-47
2022/05/04 08:40:59;;;;;;;4.77;4.10;;;17.10;76.50;;;;;;7375010;19;20443;-47
2022/05/04 08:43:30;;;;;;;7.30;4.37;;;16.90;76.60;;;;;;7380906;19;20762;-47
2022/05/04 08:46:03;;;;;;;4.80;4.30;;;16.80;76.80;;;;;;7380602;19;20921;-49
2022/05/04 08:48:34;;;;;;;5.80;4.70;;;16.80;77.60;;;;;;7380108;19;20397;-47
2022/05/04 08:51:06;;;;;;;8.40;4.70;;;16.70;78.90;;;;;;7380923;19;20421;-47
2022/05/04 08:53:39;;;;;;;6.10;5.00;;;16.70;80.80;;;;;;7382045;19;20375;-49
2022/05/04 08:56:12;;;;;;;6.60;5.83;;;16.50;83.60;;;;;;7382302;19;20391;-49
2022/05/04 08:58:43;;;;;;;6.03;5.40;;;16.50;85.30;;;;;;7383977;19;20943;-47
2022/05/04 09:01:18;;;;;;;8.70;5.60;;;16.40;88.90;;;;;;7381267;19;20356;-48
2022/05/04 09:03:48;;;;;;;6.10;5.50;;;16.30;90.90;;;;;;7383991;19;20459;-47
2022/05/04 09:06:28;;;;;;;7.20;6.13;;;16.30;92.60;;;;;;7378891;19;20404;-47
2022/05/04 09:09:03;;;;;;;7.17;6.10;;;16.00;94.50;;;;;;7381328;19;20363;-48
2022/05/04 09:11:32;;;;;;;6.97;6.27;;;15.80;96.10;;;;;;7383962;19;20387;-47
2022/05/04 09:14:10;;;;;;;7.10;5.70;;;15.80;97.20;;;;;;7379967;19;20397;-49
2022/05/04 09:16:43;;;;;;;13.00;7.27;;;15.80;97.40;;;;;;7381711;19;20384;-47
2022/05/04 09:19:18;;;;;;;22.60;8.73;;;15.90;97.30;;;;;;7376976;19;20790;-48
2022/05/04 09:21:52;;;;;;;8.20;5.70;;;16.10;97.40;;;;;;7381330;19;21026;-48
2022/05/04 09:24:29;;;;;;;6.60;5.73;;;16.40;95.50;;;;;;7375865;19;20396;-49
2022/05/04 09:27:01;;;;;;;7.43;5.90;;;16.60;96.40;;;;;;7382457;19;20423;-48
2022/05/04 09:29:36;;;;;;;6.27;5.60;;;16.70;95.20;;;;;;7382084;19;20377;-47
2022/05/04 09:32:18;;;;;;;7.43;5.07;;;16.80;95.60;;;;;;7382101;19;20381;-48
2022/05/04 09:34:49;;;;;;;7.13;5.10;;;16.90;94.70;;;;;;7382421;19;20380;-48
2022/05/04 09:45:37;;;;;;;7.93;6.23;;;17.50;92.60;;;;;;7380026;19;21072;-48
2022/05/04 09:48:14;;;;;;;6.23;5.30;;;18.00;91.70;;;;;;7380015;19;20391;-49
2022/05/04 09:50:48;;;;;;;6.17;5.30;;;18.50;90.50;;;;;;7379833;19;20773;-48
2022/05/04 09:53:29;;;;;;;14.90;5.03;;;18.90;89.90;;;;;;7380503;19;20383;-48
2022/05/04 09:55:58;;;;;;;8.67;6.90;;;19.30;85.80;;;;;;7381682;19;20390;-49
2022/05/04 09:58:31;;;;;;;6.53;5.63;;;19.60;82.60;;;;;;7381214;19;20763;-48
2022/05/04 10:01:01;;;;;;;5.80;5.30;;;20.10;82.30;;;;;;7379982;19;20380;-48
2022/05/04 10:03:33;;;;;;;6.80;5.77;;;20.40;75.70;;;;;;7381504;19;20380;-49
2022/05/04 10:06:05;;;;;;;7.43;6.10;;;20.70;74.50;;;;;;7376086;19;20373;-49
2022/05/04 10:08:34;;;;;;;37.20;12.30;;;21.00;69.30;;;;;;7377362;19;20395;-48
2022/05/04 10:11:04;;;;;;;40.10;11.00;;;21.50;66.50;;;;;;7380595;19;20375;-48
2022/05/04 10:13:34;;;;;;;7.33;6.47;;;22.50;66.00;;;;;;7380332;19;20387;-49
2022/05/04 10:16:06;;;;;;;6.03;5.43;;;23.20;60.40;;;;;;7376847;19;20391;-48
2022/05/04 10:18:42;;;;;;;6.90;6.27;;;23.90;60.80;;;;;;7374674;19;20434;-48
2022/05/04 10:21:16;;;;;;;7.83;5.60;;;24.90;57.10;;;;;;7375486;19;20380;-50
2022/05/04 10:23:55;;;;;;;6.97;6.27;;;25.70;54.00;;;;;;7376398;19;20409;-48
2022/05/04 10:26:34;;;;;;;8.80;7.90;;;25.60;52.90;;;;;;7375838;19;20381;-48
2022/05/04 10:32:09;;;;;;;8.10;7.00;;;24.80;56.10;;;;;;7381671;19;21753;-50
2022/05/04 10:34:46;;;;;;;7.40;6.70;;;24.60;55.70;;;;;;7379262;19;20902;-48
2022/05/04 10:37:21;;;;;;;7.77;7.10;;;24.90;54.40;;;;;;7378154;19;20922;-50
2022/05/04 10:40:08;;;;;;;6.30;5.80;;;25.00;54.30;;;;;;7377159;19;21371;-46
2022/05/04 10:42:57;;;;;;;7.93;6.60;;;26.40;50.50;;;;;;7378367;19;20400;-47
2022/05/04 10:45:32;;;;;;;7.60;6.90;;;28.10;46.70;;;;;;7377936;19;20385;-49
2022/05/04 10:48:18;;;;;;;7.47;6.07;;;29.50;43.30;;;;;;7376179;19;20443;-48
2022/05/04 10:50:55;;;;;;;8.30;7.03;;;30.80;38.70;;;;;;7380751;19;20480;-49
2022/05/04 10:53:45;;;;;;;7.03;5.60;;;31.90;37.30;;;;;;7380984;19;20880;-49
2022/05/04 10:56:19;;;;;;;6.60;6.00;;;32.10;34.80;;;;;;7376898;19;20729;-49
2022/05/04 10:58:56;;;;;;;5.57;4.33;;;32.60;34.40;;;;;;7378757;19;20921;-47
2022/05/04 11:01:30;;;;;;;5.80;5.30;;;33.40;34.60;;;;;;7377293;19;20789;-48
2022/05/04 11:04:22;;;;;;;5.33;4.83;;;34.10;31.80;;;;;;7378235;19;20419;-49
2022/05/04 11:07:09;;;;;;;6.13;5.60;;;33.40;29.60;;;;;;7370479;19;20544;-48
2022/05/04 11:09:42;;;;;;;4.93;4.50;;;33.20;31.10;;;;;;7374947;19;20367;-48
2022/05/04 11:12:17;;;;;;;6.10;5.60;;;32.90;32.10;;;;;;7379000;19;20403;-50
2022/05/04 11:14:49;;;;;;;5.10;4.70;;;33.10;31.40;;;;;;7375074;19;20364;-48
2022/05/04 11:17:19;;;;;;;5.37;4.87;;;32.90;30.40;;;;;;7376456;19;20399;-49
2022/05/04 11:19:51;;;;;;;5.20;3.87;;;33.50;29.40;;;;;;7374000;19;20428;-48
2022/05/04 11:22:23;;;;;;;4.10;3.70;;;33.40;30.00;;;;;;7377990;19;20440;-48
2022/05/04 11:24:53;;;;;;;3.80;3.40;;;32.80;29.80;;;;;;7373623;19;20444;-50
2022/05/04 11:27:25;;;;;;;4.33;3.57;;;32.10;32.90;;;;;;7376700;19;20413;-49
2022/05/04 11:29:55;;;;;;;4.37;3.67;;;32.10;30.60;;;;;;7374318;19;20376;-51
2022/05/04 11:32:27;;;;;;;5.00;4.57;;;31.70;31.50;;;;;;7376359;19;20380;-50
2022/05/04 11:34:59;;;;;;;4.60;4.20;;;31.10;31.90;;;;;;7375088;19;20965;-49
2022/05/04 11:37:34;;;;;;;8.43;4.20;;;30.60;34.20;;;;;;7374665;19;20416;-49
2022/05/04 11:40:15;;;;;;;4.40;4.00;;;30.70;33.00;;;;;;7376350;19;20445;-42
2022/05/04 11:42:46;;;;;;;4.40;3.73;;;31.30;33.70;;;;;;7378719;19;20400;-40
2022/05/04 11:45:16;;;;;;;4.40;3.60;;;31.00;31.90;;;;;;7376762;19;20913;-41
2022/05/04 11:47:46;;;;;;;3.50;3.20;;;31.00;31.80;;;;;;7377931;19;20458;-41
2022/05/04 11:50:16;;;;;;;6.63;4.20;;;30.90;32.60;;;;;;7375226;19;20491;-41
2022/05/04 11:52:48;;;;;;;7.90;4.20;;;31.10;32.70;;;;;;7376594;19;20372;-41
2022/05/04 11:55:21;;;;;;;4.37;3.93;;;31.00;33.00;;;;;;7377994;19;20406;-41
2022/05/04 11:57:56;;;;;;;4.83;4.30;;;30.80;32.40;;;;;;7375820;19;20399;-41
2022/05/04 12:00:27;;;;;;;4.00;3.60;;;30.50;32.90;;;;;;7375332;19;20467;-41
2022/05/04 12:02:59;;;;;;;4.33;3.93;;;30.60;32.50;;;;;;7377884;19;20399;-41
2022/05/04 12:05:31;;;;;;;5.07;4.50;;;31.10;31.30;;;;;;7373558;19;20782;-41
2022/05/04 12:08:06;;;;;;;5.47;4.77;;;31.10;30.10;;;;;;7376966;19;20410;-41
2022/05/04 12:10:37;;;;;;;4.30;3.90;;;31.50;30.80;;;;;;7375575;19;20376;-41
2022/05/04 12:13:08;;;;;;;4.07;3.67;;;31.20;30.60;;;;;;7379051;19;20395;-41
2022/05/04 12:15:41;;;;;;;3.70;3.40;;;31.10;30.70;;;;;;7372090;19;20395;-41
2022/05/04 12:18:14;;;;;;;4.53;3.83;;;30.80;31.90;;;;;;7376386;19;20548;-48
2022/05/04 12:20:46;;;;;;;4.73;4.20;;;31.00;31.50;;;;;;7381091;19;20408;-48
2022/05/04 12:23:21;;;;;;;8.73;4.50;;;30.80;30.80;;;;;;7380532;19;20395;-48
2022/05/04 12:25:56;;;;;;;4.30;3.90;;;31.10;30.90;;;;;;7380118;19;20443;-48
2022/05/04 12:28:29;;;;;;;7.23;4.17;;;31.30;30.60;;;;;;7384482;19;20391;-48
2022/05/04 12:33:44;;;;;;;3.97;3.30;;;31.50;30.00;;;;;;7382115;19;20371;-49
2022/05/04 12:36:14;;;;;;;2.90;2.70;;;31.90;29.10;;;;;;7382821;19;20375;-49
2022/05/04 12:38:51;;;;;;;4.63;3.43;;;32.20;28.50;;;;;;7384111;19;20372;-48
2022/05/04 12:41:24;;;;;;;4.93;3.30;;;32.20;28.70;;;;;;7384450;19;20906;-48
2022/05/04 12:43:54;;;;;;;4.50;3.50;;;31.80;28.40;;;;;;7381438;19;20403;-49
2022/05/04 12:46:23;;;;;;;3.70;3.30;;;32.00;29.10;;;;;;7379981;19;20496;-49
2022/05/04 12:48:56;;;;;;;4.00;2.73;;;31.60;28.30;;;;;;7382889;19;20380;-49
2022/05/04 12:51:29;;;;;;;5.73;3.13;;;31.50;29.10;;;;;;7381790;19;20856;-46
2022/05/04 12:54:01;;;;;;;3.63;3.33;;;31.10;30.00;;;;;;7382547;19;20465;-48
2022/05/04 12:59:26;;;;;;;7.57;3.00;;;29.70;31.80;;;;;;7380033;19;20976;-47
2022/05/04 13:01:58;;;;;;;4.60;2.83;;;29.50;32.20;;;;;;7379012;19;20388;-47
2022/05/04 13:04:28;;;;;;;5.63;3.43;;;29.50;31.70;;;;;;7384300;19;20376;-46
2022/05/04 13:06:57;;;;;;;3.50;2.90;;;29.40;31.20;;;;;;7378623;19;20914;-47
2022/05/04 13:09:30;;;;;;;3.90;3.60;;;28.90;32.80;;;;;;7381756;19;20387;-45
2022/05/04 13:11:59;;;;;;;3.67;3.37;;;28.30;33.70;;;;;;7381802;19;20372;-48
2022/05/04 13:14:32;;;;;;;3.90;3.60;;;27.80;35.20;;;;;;7379494;19;20410;-48
2022/05/04 13:17:01;;;;;;;4.23;3.67;;;27.30;36.40;;;;;;7357784;19;20371;-48
2022/05/04 13:19:34;;;;;;;5.17;4.10;;;26.70;37.90;;;;;;7375972;19;20440;-48
2022/05/04 13:22:07;;;;;;;4.10;3.70;;;26.00;38.50;;;;;;7381702;19;20384;-49
2022/05/04 13:24:39;;;;;;;5.23;4.10;;;25.10;40.00;;;;;;7378327;19;20398;-48
2022/05/04 13:27:13;;;;;;;3.83;3.43;;;24.70;41.20;;;;;;7381084;19;20380;-48
2022/05/04 13:29:46;;;;;;;6.40;4.40;;;24.70;41.60;;;;;;7380585;19;20391;-48
2022/05/04 13:32:18;;;;;;;3.97;3.20;;;24.40;42.40;;;;;;7381699;19;20373;-48
2022/05/04 13:34:47;;;;;;;5.13;3.90;;;24.20;43.00;;;;;;7382803;19;20404;-48
2022/05/04 13:37:19;;;;;;;5.07;3.53;;;24.10;43.40;;;;;;7383466;19;20475;-49
2022/05/04 13:39:53;;;;;;;4.67;3.13;;;23.80;43.90;;;;;;7381407;19;20388;-47
2022/05/04 13:42:26;;;;;;;3.27;2.97;;;23.70;44.20;;;;;;7378886;19;20391;-47
2022/05/04 13:44:55;;;;;;;3.40;3.10;;;23.60;44.00;;;;;;7380141;19;20412;-47
2022/05/04 13:47:29;;;;;;;3.50;3.10;;;23.40;44.40;;;;;;7379734;19;20798;-47
2022/05/04 13:50:01;;;;;;;4.23;3.03;;;23.50;44.00;;;;;;7383308;19;20960;-47
2022/05/04 13:55:22;;;;;;;6.80;3.80;;;23.40;44.60;;;;;;7379924;19;20451;-47
2022/05/04 13:57:52;;;;;;;6.07;3.60;;;23.10;44.70;;;;;;7380519;19;20531;-47